createdAt,value
2022-08-26T00:02:20.501Z,3.70
2022-08-26T00:04:50.117Z,4.40
2022-08-26T00:07:20.670Z,4.70
2022-08-26T00:09:50.007Z,5.18
2022-08-26T00:12:19.235Z,5.00
2022-08-26T00:15:01.033Z,4.15
2022-08-26T00:17:30.294Z,3.90
2022-08-26T00:20:01.796Z,4.47
2022-08-26T00:22:32.891Z,3.60
2022-08-26T00:25:02.137Z,3.83
2022-08-26T00:27:34.262Z,4.80
2022-08-26T00:30:06.929Z,5.10
2022-08-26T00:32:37.435Z,5.77
2022-08-26T00:35:08.013Z,5.90
2022-08-26T00:37:38.418Z,4.60
2022-08-26T00:40:11.476Z,5.10
2022-08-26T00:42:40.454Z,5.20
2022-08-26T00:45:17.249Z,6.18
2022-08-26T00:47:50.070Z,6.30
2022-08-26T00:50:24.514Z,5.27
2022-08-26T00:52:57.446Z,4.85
2022-08-26T00:55:37.920Z,4.07
2022-08-26T00:58:08.689Z,5.10
2022-08-26T01:00:38.349Z,4.97
2022-08-26T01:03:12.619Z,6.28
2022-08-26T01:05:42.330Z,6.18
2022-08-26T01:08:13.750Z,5.63
2022-08-26T01:10:42.765Z,5.57
2022-08-26T01:13:15.572Z,5.07
2022-08-26T01:15:47.792Z,3.88
2022-08-26T01:18:20.449Z,4.32
2022-08-26T01:21:00.029Z,3.85
2022-08-26T01:23:34.016Z,5.20
2022-08-26T01:26:08.953Z,5.20
2022-08-26T01:28:51.753Z,6.03
2022-08-26T01:31:25.612Z,6.30
2022-08-26T01:34:03.586Z,6.35
2022-08-26T01:36:33.609Z,5.80
2022-08-26T01:39:05.857Z,4.65
2022-08-26T01:41:38.204Z,4.00
2022-08-26T01:44:10.954Z,4.40
2022-08-26T01:46:40.445Z,5.20
2022-08-26T01:49:10.343Z,3.78
2022-08-26T01:51:40.266Z,5.05
2022-08-26T01:54:12.075Z,4.70
2022-08-26T01:56:42.117Z,6.07
2022-08-26T01:59:16.392Z,4.95
2022-08-26T02:01:47.062Z,5.50
2022-08-26T02:04:23.374Z,4.43
2022-08-26T02:06:54.185Z,4.75
2022-08-26T02:09:25.924Z,6.45
2022-08-26T02:11:57.083Z,4.53
2022-08-26T02:14:30.425Z,3.80
2022-08-26T02:16:59.973Z,4.00
2022-08-26T02:19:32.932Z,4.73
2022-08-26T02:22:05.343Z,5.60
2022-08-26T02:24:52.577Z,4.72
2022-08-26T02:27:24.906Z,4.75
2022-08-26T02:30:00.757Z,6.50
2022-08-26T02:32:30.710Z,5.97
2022-08-26T02:35:03.209Z,6.22
2022-08-26T02:37:33.981Z,5.35
2022-08-26T02:40:07.351Z,5.68
2022-08-26T02:42:37.934Z,6.40
2022-08-26T02:45:08.064Z,5.63
2022-08-26T02:47:37.875Z,5.45
2022-08-26T02:50:08.240Z,4.23
2022-08-26T02:52:37.556Z,4.43
2022-08-26T02:55:09.590Z,4.15
2022-08-26T02:57:38.122Z,5.50
2022-08-26T03:00:11.422Z,6.25
2022-08-26T03:02:43.169Z,5.53
2022-08-26T03:05:12.826Z,5.78
2022-08-26T03:07:42.378Z,5.65
2022-08-26T03:10:15.057Z,5.80
2022-08-26T03:12:48.104Z,5.50
2022-08-26T03:15:18.522Z,7.47
2022-08-26T03:17:50.251Z,7.38
2022-08-26T03:20:20.438Z,6.60
2022-08-26T03:22:51.687Z,6.20
2022-08-26T03:25:23.066Z,6.95
2022-08-26T03:27:53.486Z,6.85
2022-08-26T03:30:45.440Z,7.17
2022-08-26T03:33:15.734Z,8.02
2022-08-26T03:35:47.640Z,7.35
2022-08-26T03:38:21.091Z,7.90
2022-08-26T03:40:52.983Z,7.47
2022-08-26T03:43:26.724Z,6.88
2022-08-26T03:45:57.565Z,6.97
2022-08-26T03:48:25.411Z,7.45
2022-08-26T03:50:53.288Z,8.30
2022-08-26T03:53:21.339Z,7.47
2022-08-26T03:55:51.763Z,7.10
2022-08-26T03:58:20.486Z,8.45
2022-08-26T04:00:49.017Z,9.30
2022-08-26T04:03:38.446Z,9.40
2022-08-26T04:06:07.037Z,9.52
2022-08-26T04:08:34.903Z,9.18
2022-08-26T04:11:04.300Z,8.50
2022-08-26T04:13:32.939Z,9.55
2022-08-26T04:16:00.861Z,7.90
2022-08-26T04:18:37.017Z,5.60
2022-08-26T04:21:08.076Z,8.43
2022-08-26T04:23:47.305Z,7.90
2022-08-26T04:26:17.477Z,8.00
2022-08-26T04:28:45.445Z,8.52
2022-08-26T04:31:14.645Z,9.05
2022-08-26T04:33:43.772Z,9.20
2022-08-26T04:36:11.955Z,10.00
2022-08-26T04:38:40.148Z,9.55
2022-08-26T04:41:15.546Z,8.30
2022-08-26T04:43:46.917Z,10.70
2022-08-26T04:46:17.344Z,8.23
2022-08-26T04:48:45.801Z,7.25
2022-08-26T04:51:13.716Z,7.47
2022-08-26T04:53:41.685Z,8.38
2022-08-26T04:56:09.882Z,9.32
2022-08-26T04:58:38.244Z,9.93
2022-08-26T05:01:08.346Z,6.18
2022-08-26T05:03:37.366Z,6.53
2022-08-26T05:06:09.029Z,5.35
2022-08-26T05:08:39.773Z,8.57
2022-08-26T05:11:09.798Z,7.80
2022-08-26T05:13:39.206Z,6.63
2022-08-26T05:16:11.667Z,6.38
2022-08-26T05:18:44.668Z,5.13
2022-08-26T05:21:19.959Z,8.17
2022-08-26T05:23:49.039Z,7.83
2022-08-26T05:26:17.374Z,7.22
2022-08-26T05:28:51.126Z,8.18
2022-08-26T05:31:31.207Z,5.38
2022-08-26T05:33:59.913Z,5.88
2022-08-26T05:36:36.180Z,6.40
2022-08-26T05:39:10.416Z,8.40
2022-08-26T05:41:40.974Z,6.90
2022-08-26T05:44:14.091Z,6.50
2022-08-26T05:46:44.664Z,7.00
2022-08-26T05:49:13.837Z,4.80
2022-08-26T05:51:47.582Z,7.67
2022-08-26T05:54:22.003Z,6.30
2022-08-26T05:56:50.859Z,5.27
2022-08-26T05:59:24.514Z,6.85
2022-08-26T06:01:55.577Z,6.85
2022-08-26T06:04:27.569Z,7.75
2022-08-26T06:06:56.447Z,6.67
2022-08-26T06:09:24.517Z,6.82
2022-08-26T06:11:52.756Z,6.10
2022-08-26T06:14:21.592Z,6.70
2022-08-26T06:16:49.769Z,5.10
2022-08-26T06:19:20.028Z,7.03
2022-08-26T06:21:54.059Z,6.50
2022-08-26T06:24:40.127Z,6.78
2022-08-26T06:27:11.305Z,5.55
2022-08-26T06:29:39.367Z,5.55
2022-08-26T06:32:07.433Z,5.40
2022-08-26T06:34:38.530Z,7.97
2022-08-26T06:37:08.872Z,7.20
2022-08-26T06:39:40.195Z,7.63
2022-08-26T06:42:09.359Z,7.28
2022-08-26T06:44:39.088Z,7.20
2022-08-26T06:47:09.172Z,6.95
2022-08-26T06:49:38.460Z,6.82
2022-08-26T06:52:07.827Z,7.72
2022-08-26T06:54:37.036Z,7.40
2022-08-26T06:57:08.973Z,6.25
2022-08-26T06:59:36.931Z,6.47
2022-08-26T07:02:06.113Z,6.90
2022-08-26T07:04:36.228Z,7.68
2022-08-26T07:07:05.482Z,6.22
2022-08-26T07:09:35.289Z,7.32
2022-08-26T07:12:06.819Z,6.05
2022-08-26T07:14:35.875Z,6.70
2022-08-26T07:17:03.755Z,5.80
2022-08-26T07:19:31.943Z,6.78
2022-08-26T07:22:01.875Z,6.75
2022-08-26T07:24:32.180Z,7.60
2022-08-26T07:27:02.808Z,6.32
2022-08-26T07:29:31.257Z,6.77
2022-08-26T07:31:59.670Z,7.00
2022-08-26T07:34:28.182Z,7.85
2022-08-26T07:36:57.071Z,8.55
2022-08-26T07:39:28.675Z,7.45
2022-08-26T07:42:01.677Z,7.10
2022-08-26T07:44:36.308Z,6.85
2022-08-26T07:47:10.558Z,7.20
2022-08-26T07:49:52.967Z,5.93
2022-08-26T07:52:26.159Z,8.27
2022-08-26T07:54:54.850Z,7.53
2022-08-26T07:57:24.423Z,6.73
2022-08-26T07:59:55.118Z,6.70
2022-08-26T08:02:23.994Z,7.72
2022-08-26T08:04:52.738Z,7.23
2022-08-26T08:07:21.375Z,6.90
2022-08-26T08:10:11.469Z,6.23
2022-08-26T08:12:42.397Z,7.30
2022-08-26T08:15:13.277Z,6.75
2022-08-26T08:17:47.140Z,6.53
2022-08-26T08:20:23.078Z,7.38
2022-08-26T08:22:54.141Z,5.07
2022-08-26T08:25:23.202Z,6.97
2022-08-26T08:27:52.613Z,7.30
2022-08-26T08:30:23.176Z,6.90
2022-08-26T08:32:52.174Z,7.63
2022-08-26T08:35:23.601Z,7.03
2022-08-26T08:37:54.419Z,5.93
2022-08-26T08:40:27.655Z,7.28
2022-08-26T08:43:03.793Z,5.37
2022-08-26T08:45:37.875Z,6.80
2022-08-26T08:48:21.341Z,6.03
2022-08-26T08:51:04.275Z,6.68
2022-08-26T08:53:36.410Z,5.90
2022-08-26T08:56:13.163Z,6.50
2022-08-26T08:58:53.565Z,6.50
2022-08-26T09:01:31.446Z,5.25
2022-08-26T09:04:21.328Z,5.93
2022-08-26T09:06:53.868Z,5.77
2022-08-26T09:09:25.034Z,5.57
2022-08-26T09:11:54.320Z,4.95
2022-08-26T09:14:24.054Z,4.55
2022-08-26T09:17:04.961Z,5.60
2022-08-26T09:19:42.463Z,5.07
2022-08-26T09:22:26.873Z,4.60
2022-08-26T09:24:55.210Z,3.87
2022-08-26T09:27:39.044Z,4.00
2022-08-26T09:30:11.543Z,4.13
2022-08-26T09:32:40.195Z,3.60
2022-08-26T09:35:24.552Z,4.63
2022-08-26T09:37:53.007Z,5.20
2022-08-26T09:40:27.572Z,4.60
2022-08-26T09:43:09.801Z,4.78
2022-08-26T09:45:49.352Z,4.10
2022-08-26T09:48:28.319Z,4.40
2022-08-26T09:51:00.574Z,4.60
2022-08-26T09:53:31.557Z,5.10
2022-08-26T09:56:16.907Z,4.93
2022-08-26T09:58:48.631Z,4.40
2022-08-26T10:01:30.076Z,5.47
2022-08-26T10:04:07.639Z,5.90
2022-08-26T10:06:39.897Z,6.53
2022-08-26T10:09:37.269Z,5.20
2022-08-26T10:12:11.482Z,6.07
2022-08-26T10:17:24.570Z,6.35
2022-08-26T10:19:57.975Z,5.78
2022-08-26T10:22:31.411Z,6.32
2022-08-26T10:25:04.747Z,6.10
2022-08-26T10:27:41.465Z,6.10
2022-08-26T10:30:21.811Z,6.57
2022-08-26T10:32:56.767Z,6.30
2022-08-26T10:35:26.985Z,6.30
2022-08-26T10:37:57.804Z,6.47
2022-08-26T10:40:28.460Z,6.20
2022-08-26T10:43:07.223Z,6.60
2022-08-26T10:45:42.968Z,6.38
2022-08-26T10:48:18.365Z,6.22
2022-08-26T10:50:49.183Z,6.33
2022-08-26T10:53:24.911Z,6.67
2022-08-26T10:56:00.526Z,6.70
2022-08-26T10:58:39.139Z,6.85
2022-08-26T11:01:33.093Z,7.00
2022-08-26T11:04:12.455Z,7.00
2022-08-26T11:06:41.941Z,6.85
2022-08-26T11:09:13.203Z,6.38
2022-08-26T11:11:51.865Z,5.80
2022-08-26T11:14:53.629Z,6.57
2022-08-26T11:17:57.376Z,5.13
2022-08-26T11:20:41.531Z,6.22
2022-08-26T11:23:50.332Z,6.50
2022-08-26T11:26:35.831Z,5.93
2022-08-26T11:29:13.498Z,6.70
2022-08-26T11:31:58.552Z,6.90
2022-08-26T11:34:55.163Z,6.50
2022-08-26T11:37:32.965Z,6.72
2022-08-26T11:40:04.558Z,6.23
2022-08-26T11:42:40.920Z,6.13
2022-08-26T11:45:20.065Z,6.07
2022-08-26T11:47:49.366Z,6.57
2022-08-26T11:50:20.667Z,6.80
2022-08-26T11:52:54.410Z,6.20
2022-08-26T11:55:24.074Z,6.60
2022-08-26T11:57:55.495Z,6.87
2022-08-26T12:00:25.896Z,6.85
2022-08-26T12:02:57.054Z,6.50
2022-08-26T12:05:31.419Z,5.65
2022-08-26T12:08:08.019Z,6.53
2022-08-26T12:10:37.739Z,6.95
2022-08-26T12:13:10.557Z,6.55
2022-08-26T12:15:38.480Z,6.90
2022-08-26T12:18:28.694Z,6.78
2022-08-26T12:21:03.172Z,6.72
2022-08-26T12:23:45.987Z,7.35
2022-08-26T12:26:23.934Z,6.50
2022-08-26T12:28:57.520Z,6.82
2022-08-26T12:31:31.456Z,7.00
2022-08-26T12:34:02.435Z,7.93
2022-08-26T12:36:33.283Z,7.10
2022-08-26T12:39:11.147Z,7.30
2022-08-26T12:41:48.552Z,7.07
2022-08-26T12:44:54.324Z,6.73
2022-08-26T12:47:41.888Z,7.33
2022-08-26T12:50:19.066Z,7.78
2022-08-26T12:52:56.504Z,7.40
2022-08-26T12:55:36.371Z,7.05
2022-08-26T12:58:15.078Z,6.80
2022-08-26T13:00:45.220Z,6.97
2022-08-26T13:03:38.264Z,6.70
2022-08-26T13:06:18.451Z,6.75
2022-08-26T13:08:47.533Z,6.40
2022-08-26T13:11:20.292Z,6.20
2022-08-26T13:13:51.621Z,5.85
2022-08-26T13:16:20.528Z,6.03
2022-08-26T13:18:49.895Z,5.80
2022-08-26T13:21:20.530Z,5.57
2022-08-26T13:23:51.112Z,4.73
2022-08-26T13:26:21.475Z,4.70
2022-08-26T13:28:59.158Z,5.25
2022-08-26T13:31:32.411Z,4.85
2022-08-26T13:34:07.935Z,5.17
2022-08-26T13:36:35.966Z,5.68
2022-08-26T13:39:08.490Z,5.22
2022-08-26T13:41:38.230Z,5.50
2022-08-26T13:44:08.265Z,5.97
2022-08-26T13:46:39.471Z,5.65
2022-08-26T13:49:08.207Z,5.68
2022-08-26T13:51:41.712Z,5.70
2022-08-26T13:54:10.224Z,5.37
2022-08-26T13:56:39.622Z,5.60
2022-08-26T13:59:07.880Z,5.68
2022-08-26T14:01:37.911Z,6.32
2022-08-26T14:04:05.829Z,5.88
2022-08-26T14:06:36.657Z,6.15
2022-08-26T14:09:06.272Z,6.20
2022-08-26T14:11:50.618Z,5.43
2022-08-26T14:14:26.874Z,5.75
2022-08-26T14:16:59.226Z,6.00
2022-08-26T14:19:29.612Z,5.72
2022-08-26T14:22:01.749Z,5.28
2022-08-26T14:24:29.938Z,5.88
2022-08-26T14:26:58.518Z,5.45
2022-08-26T14:29:27.835Z,5.90
2022-08-26T14:31:58.690Z,6.00
2022-08-26T14:34:29.675Z,6.40
2022-08-26T14:36:57.715Z,6.30
2022-08-26T14:39:37.377Z,5.30
2022-08-26T14:42:05.703Z,4.80
2022-08-26T14:44:35.464Z,6.90
2022-08-26T14:47:07.875Z,6.07
2022-08-26T14:49:37.771Z,6.33
2022-08-26T14:52:08.535Z,5.93
2022-08-26T14:54:36.892Z,5.83
2022-08-26T14:57:09.642Z,5.80
2022-08-26T14:59:41.655Z,5.80
2022-08-26T15:02:13.982Z,4.93
2022-08-26T15:04:58.742Z,6.30
2022-08-26T15:07:29.205Z,6.95
2022-08-26T15:09:59.213Z,6.30
2022-08-26T15:12:27.892Z,6.50
2022-08-26T15:14:57.192Z,5.78
2022-08-26T15:17:25.275Z,6.93
2022-08-26T15:19:53.464Z,6.63
2022-08-26T15:22:21.614Z,6.18
2022-08-26T15:24:51.828Z,5.30
2022-08-26T15:27:22.277Z,4.30
2022-08-26T15:29:50.616Z,4.28
2022-08-26T15:32:20.839Z,4.77
2022-08-26T15:34:49.971Z,4.80
2022-08-26T15:37:20.605Z,5.32
2022-08-26T15:39:49.137Z,4.10
2022-08-26T15:42:17.211Z,5.20
2022-08-26T15:44:45.696Z,5.50
2022-08-26T15:47:14.058Z,5.15
2022-08-26T15:49:43.502Z,7.17
2022-08-26T15:52:11.888Z,5.97
2022-08-26T15:54:39.935Z,6.05
2022-08-26T15:57:11.460Z,5.90
2022-08-26T15:59:43.178Z,5.32
2022-08-26T16:02:11.384Z,5.63
2022-08-26T16:04:39.674Z,6.20
2022-08-26T16:07:09.201Z,5.30
2022-08-26T16:09:37.469Z,6.00
2022-08-26T16:12:05.938Z,5.78
2022-08-26T16:14:34.515Z,5.85
2022-08-26T16:17:02.499Z,6.47
2022-08-26T16:19:30.571Z,5.93
2022-08-26T16:21:58.532Z,6.22
2022-08-26T16:24:30.550Z,6.00
2022-08-26T16:26:59.081Z,6.40
2022-08-26T16:29:27.365Z,5.18
2022-08-26T16:31:57.595Z,5.38
2022-08-26T16:34:25.617Z,5.85
2022-08-26T16:36:53.666Z,6.57
2022-08-26T16:39:21.699Z,6.35
2022-08-26T16:41:51.544Z,7.13
2022-08-26T16:44:19.573Z,6.30
2022-08-26T16:46:48.036Z,5.68
2022-08-26T16:49:19.583Z,6.00
2022-08-26T16:51:50.593Z,5.03
2022-08-26T16:54:18.862Z,5.72
2022-08-26T16:56:46.830Z,5.10
2022-08-26T16:59:16.161Z,6.18
2022-08-26T17:01:44.206Z,6.45
2022-08-26T17:04:12.456Z,5.00
2022-08-26T17:06:41.256Z,4.72
2022-08-26T17:09:09.779Z,4.40
2022-08-26T17:11:37.962Z,3.90
2022-08-26T17:14:08.332Z,3.70
2022-08-26T17:16:38.778Z,2.83
2022-08-26T17:19:09.155Z,2.07
2022-08-26T17:21:38.170Z,1.50
2022-08-26T17:24:07.259Z,1.30
2022-08-26T17:26:37.936Z,1.10
2022-08-26T17:29:07.289Z,1.45
2022-08-26T17:31:35.365Z,1.55
2022-08-26T17:34:11.151Z,1.30
2022-08-26T17:36:40.848Z,1.40
2022-08-26T17:39:11.596Z,2.10
2022-08-26T17:41:39.569Z,2.20
2022-08-26T17:44:08.082Z,2.10
2022-08-26T17:46:38.429Z,1.70
2022-08-26T17:49:08.369Z,3.72
2022-08-26T17:51:36.369Z,2.73
2022-08-26T17:54:04.688Z,4.90
2022-08-26T17:56:32.571Z,5.22
2022-08-26T17:59:02.350Z,5.07
2022-08-26T18:01:34.789Z,5.60
2022-08-26T18:04:04.622Z,5.50
2022-08-26T18:06:35.686Z,5.88
2022-08-26T18:09:04.424Z,5.83
2022-08-26T18:11:32.819Z,6.18
2022-08-26T18:14:01.865Z,7.45
2022-08-26T18:16:32.319Z,7.22
2022-08-26T18:19:02.200Z,6.40
2022-08-26T18:21:30.378Z,6.55
2022-08-26T18:24:00.194Z,5.90
2022-08-26T18:26:31.111Z,5.60
2022-08-26T18:28:59.946Z,5.17
2022-08-26T18:31:28.044Z,5.50
2022-08-26T18:33:56.479Z,6.18
2022-08-26T18:36:26.170Z,7.38
2022-08-26T18:38:57.326Z,5.18
2022-08-26T18:41:28.800Z,5.80
2022-08-26T18:43:57.173Z,4.57
2022-08-26T18:46:27.938Z,5.10
2022-08-26T18:48:57.088Z,5.82
2022-08-26T18:51:27.863Z,6.55
2022-08-26T18:53:55.759Z,6.07
2022-08-26T18:56:29.073Z,5.25
2022-08-26T18:58:59.881Z,6.38
2022-08-26T19:01:29.716Z,4.33
2022-08-26T19:03:58.293Z,5.75
2022-08-26T19:06:27.036Z,6.40
2022-08-26T19:08:55.788Z,5.70
2022-08-26T19:11:31.610Z,5.82
2022-08-26T19:14:06.414Z,5.10
2022-08-26T19:16:34.681Z,6.00
2022-08-26T19:19:02.831Z,5.70
2022-08-26T19:21:34.524Z,5.90
2022-08-26T19:24:09.275Z,5.00
2022-08-26T19:26:38.884Z,4.47
2022-08-26T19:29:08.278Z,5.07
2022-08-26T19:31:36.461Z,4.73
2022-08-26T19:34:05.322Z,5.45
2022-08-26T19:36:34.229Z,4.57
2022-08-26T19:39:05.431Z,4.10
2022-08-26T19:41:38.004Z,4.65
2022-08-26T19:44:10.142Z,6.35
2022-08-26T19:49:11.812Z,7.13
2022-08-26T19:51:39.882Z,6.00
2022-08-26T19:54:07.822Z,6.47
2022-08-26T19:56:36.554Z,6.43
2022-08-26T19:59:04.598Z,6.13
2022-08-26T20:01:33.855Z,6.13
2022-08-26T20:04:04.849Z,6.57
2022-08-26T20:06:32.810Z,6.30
2022-08-26T20:09:00.679Z,4.47
2022-08-26T20:11:29.379Z,5.97
2022-08-26T20:13:59.692Z,4.80
2022-08-26T20:16:27.688Z,6.37
2022-08-26T20:19:14.338Z,5.13
2022-08-26T20:21:42.947Z,6.20
2022-08-26T20:24:13.865Z,5.40
2022-08-26T20:26:44.063Z,6.30
2022-08-26T20:29:13.892Z,7.50
2022-08-26T20:31:43.991Z,4.75
2022-08-26T20:34:18.939Z,5.60
2022-08-26T20:36:48.475Z,5.50
2022-08-26T20:39:17.595Z,4.67
2022-08-26T20:41:45.678Z,7.22
2022-08-26T20:44:16.682Z,4.97
2022-08-26T20:46:44.847Z,6.60
2022-08-26T20:49:13.233Z,5.95
2022-08-26T20:51:43.812Z,6.88
2022-08-26T20:54:13.076Z,4.82
2022-08-26T20:56:41.422Z,7.95
2022-08-26T20:59:09.665Z,9.18
2022-08-26T21:01:42.447Z,9.05
2022-08-26T21:04:13.010Z,8.27
2022-08-26T21:06:52.112Z,5.97
2022-08-26T21:09:20.667Z,4.43
2022-08-26T21:11:49.907Z,6.20
2022-08-26T21:14:19.013Z,6.82
2022-08-26T21:16:47.789Z,7.03
2022-08-26T21:19:18.571Z,7.55
2022-08-26T21:21:49.333Z,5.65
2022-08-26T21:24:17.575Z,4.57
2022-08-26T21:26:45.593Z,4.30
2022-08-26T21:29:14.174Z,6.40
2022-08-26T21:31:46.372Z,5.15
2022-08-26T21:34:15.310Z,5.53
2022-08-26T21:36:43.294Z,6.63
2022-08-26T21:39:12.895Z,5.68
2022-08-26T21:41:42.223Z,5.47
2022-08-26T21:44:14.225Z,6.30
2022-08-26T21:46:46.722Z,7.18
2022-08-26T21:49:16.704Z,6.73
2022-08-26T21:51:46.753Z,7.53
2022-08-26T21:54:17.416Z,7.15
2022-08-26T21:56:47.149Z,5.95
2022-08-26T21:59:17.543Z,7.40
2022-08-26T22:01:48.104Z,8.65
2022-08-26T22:04:18.801Z,8.73
2022-08-26T22:06:48.757Z,8.80
2022-08-26T22:09:19.848Z,7.47
2022-08-26T22:11:48.477Z,6.78
2022-08-26T22:14:21.971Z,4.73
2022-08-26T22:16:51.056Z,7.63
2022-08-26T22:19:20.011Z,7.13
2022-08-26T22:21:50.337Z,6.53
2022-08-26T22:24:24.686Z,7.72
2022-08-26T22:26:52.999Z,6.40
2022-08-26T22:29:21.015Z,7.07
2022-08-26T22:31:51.410Z,5.50
2022-08-26T22:34:21.065Z,7.35
2022-08-26T22:36:50.377Z,6.43
2022-08-26T22:39:25.341Z,6.53
2022-08-26T22:41:54.125Z,5.60
2022-08-26T22:44:23.154Z,6.90
2022-08-26T22:46:54.240Z,10.50
2022-08-26T22:49:22.559Z,9.63
2022-08-26T22:51:51.179Z,6.90
2022-08-26T22:54:20.352Z,8.40
2022-08-26T22:56:48.622Z,7.90
2022-08-26T22:59:16.775Z,9.15
2022-08-26T23:01:46.393Z,6.20
2022-08-26T23:04:14.547Z,6.93
2022-08-26T23:06:47.541Z,7.32
2022-08-26T23:09:20.078Z,8.00
2022-08-26T23:11:49.895Z,8.57
2022-08-26T23:14:20.193Z,7.10
2022-08-26T23:16:48.497Z,10.20
2022-08-26T23:19:18.607Z,13.27
2022-08-26T23:21:46.790Z,11.85
2022-08-26T23:24:15.080Z,11.32
2022-08-26T23:26:45.506Z,8.60
2022-08-26T23:29:15.531Z,10.95
2022-08-26T23:31:46.013Z,8.90
2022-08-26T23:34:36.084Z,11.97
2022-08-26T23:37:06.213Z,14.63
2022-08-26T23:39:38.135Z,15.80
2022-08-26T23:42:10.826Z,17.98
2022-08-26T23:44:38.835Z,16.05
2022-08-26T23:47:07.409Z,18.43
2022-08-26T23:49:36.606Z,19.73
2022-08-26T23:52:23.386Z,19.23
2022-08-26T23:54:52.360Z,14.80
2022-08-26T23:57:23.959Z,19.95
2022-08-26T23:59:52.396Z,14.35
